createdAt,value
2022-11-22T00:02:03.058Z,7.30
2022-11-22T00:04:32.694Z,7.20
2022-11-22T00:07:02.639Z,7.30
2022-11-22T00:09:32.184Z,7.30
2022-11-22T00:12:01.819Z,7.30
2022-11-22T00:14:31.305Z,7.30
2022-11-22T00:17:00.945Z,7.30
2022-11-22T00:19:30.786Z,7.30
2022-11-22T00:22:01.159Z,7.30
2022-11-22T00:24:30.577Z,7.30
2022-11-22T00:27:00.146Z,7.30
2022-11-22T00:29:29.914Z,7.30
2022-11-22T00:31:59.862Z,7.30
2022-11-22T00:34:30.262Z,7.20
2022-11-22T00:36:59.763Z,7.10
2022-11-22T00:39:29.722Z,7.10
2022-11-22T00:41:59.354Z,7.10
2022-11-22T00:44:28.789Z,7.20
2022-11-22T00:46:58.452Z,7.10
2022-11-22T00:49:28.187Z,7.10
2022-11-22T00:51:57.773Z,7.10
2022-11-22T00:54:27.213Z,7.20
2022-11-22T00:56:56.786Z,7.20
2022-11-22T00:59:26.372Z,7.20
2022-11-22T01:01:55.987Z,7.20
2022-11-22T01:04:25.530Z,7.30
2022-11-22T01:06:55.022Z,7.20
2022-11-22T01:09:26.012Z,7.20
2022-11-22T01:11:55.567Z,7.20
2022-11-22T01:14:25.088Z,7.20
2022-11-22T01:16:54.686Z,7.20
2022-11-22T01:19:24.256Z,7.20
2022-11-22T01:21:53.804Z,7.30
2022-11-22T01:24:23.436Z,7.10
2022-11-22T01:26:52.930Z,7.20
2022-11-22T01:29:22.498Z,7.20
2022-11-22T01:31:52.018Z,7.20
2022-11-22T01:34:21.581Z,7.20
2022-11-22T01:36:51.865Z,7.20
2022-11-22T01:39:21.399Z,7.20
2022-11-22T01:41:50.944Z,7.20
2022-11-22T01:44:29.732Z,7.20
2022-11-22T01:47:02.359Z,7.20
2022-11-22T01:49:49.250Z,7.20
2022-11-22T01:52:21.969Z,7.20
2022-11-22T01:55:03.294Z,7.20
2022-11-22T01:57:36.363Z,7.20
2022-11-22T02:00:12.132Z,7.20
2022-11-22T02:02:49.428Z,7.20
2022-11-22T02:05:22.088Z,7.10
2022-11-22T02:08:09.627Z,7.10
2022-11-22T02:10:42.227Z,7.10
2022-11-22T02:13:12.589Z,7.00
2022-11-22T02:15:43.849Z,7.10
2022-11-22T02:18:13.360Z,7.10
2022-11-22T02:20:43.264Z,7.00
2022-11-22T02:23:21.663Z,7.00
2022-11-22T02:25:54.406Z,7.00
2022-11-22T02:28:24.391Z,6.90
2022-11-22T02:30:53.948Z,6.90
2022-11-22T02:33:23.512Z,7.00
2022-11-22T02:35:53.188Z,6.80
2022-11-22T02:38:25.878Z,6.90
2022-11-22T02:40:58.419Z,6.90
2022-11-22T02:43:30.908Z,6.90
2022-11-22T02:46:09.224Z,6.90
2022-11-22T02:48:45.691Z,6.80
2022-11-22T02:51:19.332Z,6.90
2022-11-22T02:53:53.622Z,6.80
2022-11-22T02:56:23.950Z,6.80
2022-11-22T02:58:53.438Z,6.80
2022-11-22T03:01:23.065Z,6.80
2022-11-22T03:03:52.657Z,6.90
2022-11-22T03:06:22.149Z,6.90
2022-11-22T03:08:56.139Z,6.80
2022-11-22T03:11:22.812Z,6.80
2022-11-22T03:13:53.063Z,6.80
2022-11-22T03:16:22.651Z,6.80
2022-11-22T03:18:52.491Z,6.80
2022-11-22T03:21:22.051Z,6.80
2022-11-22T03:25:41.290Z,6.80
2022-11-22T03:28:11.389Z,6.80
2022-11-22T03:30:43.355Z,6.80
2022-11-22T03:33:12.918Z,6.90
2022-11-22T03:35:42.473Z,6.90
2022-11-22T03:38:13.369Z,6.90
2022-11-22T03:40:45.841Z,6.90
2022-11-22T03:43:15.480Z,7.00
2022-11-22T03:45:49.346Z,7.00
2022-11-22T03:48:19.982Z,7.00
2022-11-22T03:50:49.535Z,7.00
2022-11-22T03:53:19.103Z,7.00
2022-11-22T03:55:48.522Z,6.90
2022-11-22T03:58:18.110Z,6.90
2022-11-22T04:00:47.594Z,6.90
2022-11-22T04:03:17.032Z,6.90
2022-11-22T04:05:46.880Z,7.00
2022-11-22T04:08:16.441Z,7.00
2022-11-22T04:10:45.925Z,7.00
2022-11-22T04:13:16.643Z,7.00
2022-11-22T04:15:46.181Z,7.10
2022-11-22T04:18:16.480Z,7.00
2022-11-22T04:21:03.726Z,7.00
2022-11-22T04:23:34.391Z,6.90
2022-11-22T04:26:04.081Z,6.90
2022-11-22T04:29:02.031Z,6.90
2022-11-22T04:31:22.933Z,6.90
2022-11-22T04:33:52.436Z,6.90
2022-11-22T04:36:21.973Z,6.80
2022-11-22T04:38:52.982Z,6.90
2022-11-22T04:41:22.476Z,6.80
2022-11-22T04:44:09.604Z,6.90
2022-11-22T04:46:39.089Z,6.90
2022-11-22T04:49:08.519Z,6.90
2022-11-22T04:51:57.851Z,6.90
2022-11-22T04:54:27.415Z,7.00
2022-11-22T04:56:56.981Z,6.90
2022-11-22T04:59:26.688Z,7.00
2022-11-22T05:01:56.255Z,7.00
2022-11-22T05:04:25.670Z,6.90
2022-11-22T05:06:56.822Z,6.90
2022-11-22T05:09:26.383Z,7.00
2022-11-22T05:11:56.528Z,7.00
2022-11-22T05:14:26.023Z,7.00
2022-11-22T05:16:55.438Z,7.00
2022-11-22T05:19:25.451Z,6.90
2022-11-22T05:21:54.979Z,6.90
2022-11-22T05:24:24.467Z,7.00
2022-11-22T05:26:54.462Z,7.00
2022-11-22T05:29:23.883Z,7.00
2022-11-22T05:31:53.383Z,7.00
2022-11-22T05:34:23.054Z,7.00
2022-11-22T05:36:52.682Z,7.10
2022-11-22T05:39:22.203Z,7.00
2022-11-22T05:41:57.568Z,7.00
2022-11-22T05:44:27.210Z,6.90
2022-11-22T05:46:56.708Z,7.00
2022-11-22T05:49:26.270Z,6.90
2022-11-22T05:51:56.338Z,7.00
2022-11-22T05:54:25.891Z,7.00
2022-11-22T05:56:55.514Z,6.90
2022-11-22T05:59:24.937Z,6.90
2022-11-22T06:01:54.506Z,6.90
2022-11-22T06:04:24.049Z,6.90
2022-11-22T06:06:53.534Z,6.90
2022-11-22T06:09:23.028Z,6.90
2022-11-22T06:11:53.012Z,6.90
2022-11-22T06:14:22.499Z,7.00
2022-11-22T06:16:53.524Z,6.90
2022-11-22T06:19:23.141Z,6.90
2022-11-22T06:21:52.703Z,7.00
2022-11-22T06:24:22.125Z,6.90
2022-11-22T06:26:51.660Z,6.80
2022-11-22T06:29:21.164Z,6.90
2022-11-22T06:31:51.341Z,6.80
2022-11-22T06:34:21.015Z,6.90
2022-11-22T06:36:50.460Z,6.90
2022-11-22T06:39:19.974Z,6.90
2022-11-22T06:41:49.461Z,6.90
2022-11-22T06:44:19.027Z,6.90
2022-11-22T06:46:48.575Z,7.00
2022-11-22T06:49:17.986Z,6.90
2022-11-22T06:51:47.487Z,7.00
2022-11-22T06:54:17.061Z,7.00
2022-11-22T06:56:46.693Z,7.00
2022-11-22T06:59:16.246Z,7.00
2022-11-22T07:01:45.856Z,7.00
2022-11-22T07:04:15.711Z,7.00
2022-11-22T07:06:46.252Z,7.00
2022-11-22T07:09:15.800Z,7.10
2022-11-22T07:11:45.372Z,7.00
2022-11-22T07:14:15.029Z,7.00
2022-11-22T07:16:44.466Z,7.00
2022-11-22T07:19:13.956Z,7.00
2022-11-22T07:21:43.645Z,7.10
2022-11-22T07:24:14.981Z,7.00
2022-11-22T07:26:44.406Z,7.00
2022-11-22T07:29:13.895Z,7.00
2022-11-22T07:31:46.568Z,7.00
2022-11-22T07:34:16.207Z,7.00
2022-11-22T07:36:45.703Z,7.00
2022-11-22T07:39:15.249Z,6.90
2022-11-22T07:41:44.798Z,6.90
2022-11-22T07:44:14.299Z,6.90
2022-11-22T07:46:44.623Z,6.90
2022-11-22T07:49:14.178Z,6.90
2022-11-22T07:51:43.712Z,6.90
2022-11-22T07:54:14.131Z,7.00
2022-11-22T07:56:43.550Z,6.90
2022-11-22T07:59:13.055Z,6.90
2022-11-22T08:01:42.766Z,6.90
2022-11-22T08:04:12.715Z,6.90
2022-11-22T08:06:42.356Z,6.90
2022-11-22T08:09:13.896Z,6.90
2022-11-22T08:11:43.391Z,6.90
2022-11-22T08:14:13.063Z,6.90
2022-11-22T08:16:42.701Z,6.90
2022-11-22T08:19:13.968Z,6.90
2022-11-22T08:21:44.049Z,6.90
2022-11-22T08:24:14.356Z,7.00
2022-11-22T08:26:45.819Z,6.90
2022-11-22T08:29:15.339Z,7.00
2022-11-22T08:31:44.906Z,7.10
2022-11-22T08:34:14.345Z,7.00
2022-11-22T08:36:43.885Z,7.20
2022-11-22T08:39:13.382Z,7.20
2022-11-22T08:41:42.800Z,7.20
2022-11-22T08:44:12.363Z,7.30
2022-11-22T08:46:41.853Z,7.30
2022-11-22T08:49:14.271Z,7.30
2022-11-22T08:51:45.243Z,7.30
2022-11-22T08:54:16.669Z,7.40
2022-11-22T08:56:46.095Z,7.60
2022-11-22T08:59:15.646Z,7.70
2022-11-22T09:01:45.290Z,7.80
2022-11-22T09:04:14.828Z,7.90
2022-11-22T09:09:36.256Z,7.90
2022-11-22T09:11:46.639Z,8.10
2022-11-22T09:14:16.263Z,8.40
2022-11-22T09:16:45.767Z,8.50
2022-11-22T09:19:15.327Z,8.30
2022-11-22T09:21:44.948Z,8.30
2022-11-22T09:24:14.507Z,8.10
2022-11-22T09:26:44.097Z,8.20
2022-11-22T09:29:14.959Z,8.50
2022-11-22T09:31:45.321Z,8.60
2022-11-22T09:34:15.109Z,8.90
2022-11-22T09:36:44.654Z,8.60
2022-11-22T09:39:14.226Z,8.70
2022-11-22T09:42:01.918Z,9.30
2022-11-22T09:44:40.171Z,10.60
2022-11-22T09:47:12.697Z,10.30
2022-11-22T09:50:03.249Z,10.20
2022-11-22T09:52:41.441Z,10.10
2022-11-22T09:55:26.034Z,9.50
2022-11-22T09:58:07.320Z,9.40
2022-11-22T10:00:37.014Z,9.20
2022-11-22T10:03:15.395Z,9.10
2022-11-22T10:05:53.817Z,9.10
2022-11-22T10:08:44.348Z,9.10
2022-11-22T10:11:36.755Z,9.10
2022-11-22T10:14:18.671Z,9.10
2022-11-22T10:17:24.285Z,9.00
2022-11-22T10:19:56.847Z,9.00
2022-11-22T10:22:29.818Z,8.90
2022-11-22T10:25:01.975Z,8.90
2022-11-22T10:27:34.476Z,8.90
2022-11-22T10:30:07.531Z,8.80
2022-11-22T10:32:42.862Z,8.80
2022-11-22T10:35:18.087Z,8.80
2022-11-22T10:38:13.757Z,8.80
2022-11-22T10:40:49.232Z,8.70
2022-11-22T10:43:38.235Z,8.80
2022-11-22T10:46:16.256Z,8.80
2022-11-22T10:48:54.231Z,8.80
2022-11-22T10:51:29.512Z,8.90
2022-11-22T10:54:04.963Z,8.80
2022-11-22T10:56:50.781Z,8.80
2022-11-22T10:59:30.136Z,8.90
2022-11-22T11:02:06.015Z,9.00
2022-11-22T11:04:38.742Z,9.00
2022-11-22T11:07:12.769Z,8.90
2022-11-22T11:10:10.112Z,9.10
2022-11-22T11:12:51.691Z,9.20
2022-11-22T11:15:39.174Z,9.20
2022-11-22T11:18:11.736Z,9.20
2022-11-22T11:20:43.856Z,9.20
2022-11-22T11:23:15.185Z,9.20
2022-11-22T11:25:46.730Z,9.30
2022-11-22T11:28:25.340Z,9.30
2022-11-22T11:30:57.823Z,9.40
2022-11-22T11:33:33.505Z,9.30
2022-11-22T11:36:18.889Z,9.20
2022-11-22T11:38:51.411Z,9.20
2022-11-22T11:41:24.363Z,9.20
2022-11-22T11:43:56.659Z,9.30
2022-11-22T11:46:28.619Z,9.30
2022-11-22T11:49:16.383Z,9.40
2022-11-22T11:51:48.623Z,9.50
2022-11-22T11:54:23.802Z,9.60
2022-11-22T11:57:04.814Z,9.50
2022-11-22T11:59:40.170Z,9.50
2022-11-22T12:02:18.832Z,9.60
2022-11-22T12:05:03.777Z,9.50
2022-11-22T12:07:39.375Z,9.30
2022-11-22T12:10:29.851Z,9.30
2022-11-22T12:13:04.596Z,9.20
2022-11-22T12:15:52.943Z,9.20
2022-11-22T12:18:56.567Z,9.20
2022-11-22T12:21:43.719Z,9.20
2022-11-22T12:26:48.283Z,9.20
2022-11-22T12:29:18.130Z,9.40
2022-11-22T12:31:56.487Z,9.50
2022-11-22T12:34:33.380Z,9.50
2022-11-22T12:37:06.641Z,9.50
2022-11-22T12:39:37.414Z,9.50
2022-11-22T12:42:09.842Z,9.40
2022-11-22T12:44:42.407Z,9.30
2022-11-22T12:47:16.051Z,9.20
2022-11-22T12:49:48.547Z,9.20
2022-11-22T12:52:43.902Z,9.30
2022-11-22T12:55:22.396Z,9.20
2022-11-22T12:58:06.724Z,9.30
2022-11-22T13:00:39.632Z,9.30
2022-11-22T13:03:14.862Z,9.30
2022-11-22T13:05:50.290Z,9.20
2022-11-22T13:08:43.391Z,9.20
2022-11-22T13:11:18.480Z,9.10
2022-11-22T13:13:50.970Z,9.20
2022-11-22T13:16:20.530Z,9.30
2022-11-22T13:18:53.062Z,9.20
2022-11-22T13:21:28.590Z,9.30
2022-11-22T13:24:03.864Z,9.20
2022-11-22T13:26:39.086Z,9.30
2022-11-22T13:29:14.580Z,9.30
2022-11-22T13:32:04.842Z,9.30
2022-11-22T13:34:36.482Z,9.40
2022-11-22T13:37:14.762Z,9.40
2022-11-22T13:39:47.170Z,9.30
2022-11-22T13:42:22.713Z,9.30
2022-11-22T13:44:58.140Z,9.40
2022-11-22T13:47:36.947Z,9.30
2022-11-22T13:50:44.657Z,9.30
2022-11-22T13:53:25.974Z,9.40
2022-11-22T13:55:56.406Z,9.40
2022-11-22T13:58:28.888Z,9.50
2022-11-22T14:01:00.024Z,9.50
2022-11-22T14:03:38.251Z,9.50
2022-11-22T14:06:26.658Z,9.60
2022-11-22T14:09:17.564Z,9.60
2022-11-22T14:11:50.165Z,9.70
2022-11-22T14:14:29.076Z,9.70
2022-11-22T14:17:20.646Z,9.80
2022-11-22T14:20:22.103Z,9.90
2022-11-22T14:22:57.468Z,9.90
2022-11-22T14:25:46.486Z,10.00
2022-11-22T14:28:27.764Z,10.00
2022-11-22T14:30:59.624Z,10.00
2022-11-22T14:33:30.321Z,9.90
2022-11-22T14:36:11.884Z,9.80
2022-11-22T14:38:44.060Z,9.80
2022-11-22T14:41:37.772Z,9.80
2022-11-22T14:44:10.482Z,9.80
2022-11-22T14:46:53.289Z,9.80
2022-11-22T14:49:35.421Z,9.70
2022-11-22T14:52:07.957Z,9.70
2022-11-22T14:54:40.558Z,9.70
2022-11-22T14:57:13.059Z,9.70
2022-11-22T15:00:02.212Z,9.70
2022-11-22T15:02:49.493Z,9.70
2022-11-22T15:09:14.915Z,9.70
2022-11-22T15:09:21.465Z,9.80
2022-11-22T15:11:05.789Z,9.70
2022-11-22T15:13:44.007Z,9.70
2022-11-22T15:57:35.475Z,9.50
2022-11-22T16:00:11.434Z,9.50
2022-11-22T16:02:43.931Z,9.50
2022-11-22T16:06:06.539Z,9.50
2022-11-22T16:07:48.980Z,9.50
2022-11-22T16:10:27.714Z,9.50
2022-11-22T16:12:57.282Z,9.40
2022-11-22T16:15:34.171Z,9.40
2022-11-22T16:18:09.435Z,9.40
2022-11-22T16:20:41.457Z,9.40
2022-11-22T16:23:14.023Z,9.40
2022-11-22T16:25:47.281Z,9.30
2022-11-22T16:28:23.401Z,9.30
2022-11-22T16:30:55.911Z,9.40
2022-11-22T16:33:26.365Z,9.30
2022-11-22T16:35:58.868Z,9.30
2022-11-22T16:38:30.303Z,9.30
2022-11-22T16:41:02.386Z,9.30
2022-11-22T16:43:34.895Z,9.40
2022-11-22T16:46:05.557Z,9.40
2022-11-22T16:48:35.370Z,9.30
2022-11-22T16:51:08.088Z,9.40
2022-11-22T16:53:46.069Z,9.30
2022-11-22T16:56:21.527Z,9.30
2022-11-22T16:58:52.903Z,9.30
2022-11-22T17:01:26.459Z,9.20
2022-11-22T17:03:58.906Z,9.20
2022-11-22T17:06:31.532Z,9.20
2022-11-22T17:09:01.707Z,9.30
2022-11-22T17:11:32.942Z,9.30
2022-11-22T17:14:02.517Z,9.20
2022-11-22T17:16:32.160Z,9.20
2022-11-22T17:19:01.694Z,9.20
2022-11-22T17:21:37.640Z,9.20
2022-11-22T17:24:08.610Z,9.20
2022-11-22T17:26:38.063Z,9.20
2022-11-22T17:29:11.169Z,9.20
2022-11-22T17:31:39.011Z,9.20
2022-11-22T17:34:09.966Z,9.20
2022-11-22T17:36:40.361Z,9.20
2022-11-22T17:39:12.871Z,9.20
2022-11-22T17:41:43.725Z,9.20
2022-11-22T17:44:16.362Z,9.20
2022-11-22T17:46:47.883Z,9.20
2022-11-22T17:49:17.418Z,9.20
2022-11-22T17:51:48.541Z,9.20
2022-11-22T17:54:17.979Z,9.10
2022-11-22T17:56:47.397Z,9.10
2022-11-22T17:59:17.076Z,9.10
2022-11-22T18:01:46.632Z,9.10
2022-11-22T18:04:17.997Z,9.10
2022-11-22T18:06:47.497Z,9.10
2022-11-22T18:09:17.006Z,9.10
2022-11-22T18:11:47.897Z,9.10
2022-11-22T18:14:17.417Z,9.20
2022-11-22T18:16:46.912Z,9.20
2022-11-22T18:19:16.438Z,9.20
2022-11-22T18:21:45.945Z,9.10
2022-11-22T18:24:15.386Z,9.10
2022-11-22T18:26:45.106Z,9.10
2022-11-22T18:29:41.228Z,9.20
2022-11-22T18:31:53.198Z,9.10
2022-11-22T18:34:20.367Z,9.10
2022-11-22T18:36:56.003Z,9.10
2022-11-22T18:39:24.079Z,9.10
2022-11-22T18:41:53.696Z,9.10
2022-11-22T18:44:23.182Z,9.10
2022-11-22T18:46:53.298Z,9.10
2022-11-22T18:49:23.644Z,9.10
2022-11-22T18:51:53.185Z,9.10
2022-11-22T18:54:22.943Z,9.10
2022-11-22T18:56:53.652Z,9.00
2022-11-22T18:59:23.186Z,9.10
2022-11-22T19:01:53.761Z,9.10
2022-11-22T19:04:23.318Z,9.00
2022-11-22T19:06:52.935Z,9.00
2022-11-22T19:09:22.462Z,9.00
2022-11-22T19:11:57.083Z,9.10
2022-11-22T19:14:24.845Z,9.10
2022-11-22T19:16:54.402Z,9.10
2022-11-22T19:19:24.847Z,9.00
2022-11-22T19:21:54.401Z,9.10
2022-11-22T19:24:23.957Z,9.00
2022-11-22T19:26:54.240Z,9.00
2022-11-22T19:29:24.604Z,9.00
2022-11-22T19:31:54.259Z,9.00
2022-11-22T19:34:23.957Z,9.00
2022-11-22T19:36:53.474Z,9.00
2022-11-22T19:39:22.917Z,9.00
2022-11-22T19:41:52.433Z,9.00
2022-11-22T19:44:22.775Z,9.00
2022-11-22T19:46:52.376Z,9.00
2022-11-22T19:49:21.904Z,9.00
2022-11-22T19:51:51.367Z,9.00
2022-11-22T19:54:20.998Z,9.00
2022-11-22T19:56:50.511Z,9.00
2022-11-22T19:59:21.072Z,9.00
2022-11-22T20:01:50.573Z,9.00
2022-11-22T20:04:20.196Z,9.00
2022-11-22T20:06:50.474Z,9.00
2022-11-22T20:09:20.409Z,8.90
2022-11-22T20:11:49.921Z,8.90
2022-11-22T20:14:19.415Z,9.00
2022-11-22T20:16:48.920Z,8.90
2022-11-22T20:19:18.512Z,9.00
2022-11-22T20:21:49.649Z,8.90
2022-11-22T20:24:19.198Z,8.80
2022-11-22T20:26:48.696Z,8.90
2022-11-22T20:29:19.758Z,8.90
2022-11-22T20:31:50.240Z,8.80
2022-11-22T20:34:21.324Z,8.90
2022-11-22T20:36:50.916Z,8.80
2022-11-22T20:39:20.410Z,8.90
2022-11-22T20:42:05.879Z,8.80
2022-11-22T20:44:24.647Z,8.70
2022-11-22T20:46:52.670Z,8.90
2022-11-22T20:49:23.874Z,8.90
2022-11-22T20:51:53.493Z,8.80
2022-11-22T20:54:23.067Z,8.70
2022-11-22T20:56:52.493Z,8.70
2022-11-22T20:59:22.121Z,8.70
2022-11-22T21:01:53.361Z,8.60
2022-11-22T21:04:23.006Z,8.80
2022-11-22T21:06:52.578Z,8.70
2022-11-22T21:09:22.235Z,8.70
2022-11-22T21:11:51.815Z,8.60
2022-11-22T21:14:21.392Z,8.70
2022-11-22T21:16:50.922Z,8.60
2022-11-22T21:19:20.509Z,8.60
2022-11-22T21:21:49.938Z,8.70
2022-11-22T21:24:19.574Z,8.70
2022-11-22T21:26:50.946Z,8.60
2022-11-22T21:29:20.499Z,8.60
2022-11-22T21:31:50.114Z,8.70
2022-11-22T21:34:19.557Z,8.70
2022-11-22T21:36:49.024Z,8.70
2022-11-22T21:39:18.543Z,8.60
2022-11-22T21:41:48.033Z,8.70
2022-11-22T21:44:18.216Z,8.70
2022-11-22T21:46:47.827Z,8.60
2022-11-22T21:49:17.262Z,8.80
2022-11-22T21:51:48.664Z,8.70
2022-11-22T21:54:18.463Z,8.60
2022-11-22T21:56:47.977Z,8.60
2022-11-22T21:59:17.753Z,8.60
2022-11-22T22:01:47.233Z,8.60
2022-11-22T22:04:16.908Z,8.60
2022-11-22T22:06:46.451Z,8.60
2022-11-22T22:09:15.926Z,8.50
2022-11-22T22:11:47.189Z,8.60
2022-11-22T22:14:16.790Z,8.60
2022-11-22T22:16:46.434Z,8.50
2022-11-22T22:19:17.419Z,8.50
2022-11-22T22:21:47.947Z,8.50
2022-11-22T22:24:17.482Z,8.50
2022-11-22T22:26:47.047Z,8.40
2022-11-22T22:29:16.686Z,8.60
2022-11-22T22:31:46.137Z,8.50
2022-11-22T22:34:16.351Z,8.50
2022-11-22T22:36:47.057Z,8.50
2022-11-22T22:39:16.632Z,8.50
2022-11-22T22:41:46.188Z,8.50
2022-11-22T22:44:15.715Z,8.60
2022-11-22T22:46:45.267Z,8.50
2022-11-22T22:49:14.712Z,8.50
2022-11-22T22:51:44.273Z,8.50
2022-11-22T22:54:13.912Z,8.60
2022-11-22T22:56:45.470Z,8.60
2022-11-22T22:59:14.893Z,8.60
2022-11-22T23:01:44.468Z,8.50
2022-11-22T23:04:13.944Z,8.50
2022-11-22T23:06:43.455Z,8.60
2022-11-22T23:09:13.704Z,8.50
2022-11-22T23:12:01.415Z,8.60
2022-11-22T23:14:31.202Z,8.60
2022-11-22T23:17:00.696Z,8.70
2022-11-22T23:19:30.572Z,8.60
2022-11-22T23:22:00.403Z,8.60
2022-11-22T23:24:34.585Z,8.60
2022-11-22T23:27:04.161Z,8.60
2022-11-22T23:29:36.087Z,8.60
2022-11-22T23:32:05.853Z,8.50
2022-11-22T23:34:35.305Z,8.60
2022-11-22T23:37:04.841Z,8.60
2022-11-22T23:39:34.343Z,8.50
2022-11-22T23:42:04.712Z,8.60
2022-11-22T23:44:34.205Z,8.60
2022-11-22T23:47:03.780Z,8.60
2022-11-22T23:49:33.566Z,8.70
2022-11-22T23:52:03.579Z,8.60
2022-11-22T23:54:33.133Z,8.60
2022-11-22T23:57:02.628Z,8.60
2022-11-22T23:59:33.038Z,8.60
